Time;durP1;ratioP1;P1;durP2;ratioP2;P2;SDS_P1;SDS_P2;PMS_P1;PMS_P2;Temp;Humidity;BMP_temperature;BMP_pressure;BME280_temperature;BME280_humidity;BME280_pressure;Samples;Min_cycle;Max_cycle;Signal;HPM_P1;HPM_P2
2021/07/30 00:02:11;;;;;;;15.13;6.68;;;15.60;79.80;;;;;;5078268;28;20119;-82
2021/07/30 00:04:36;;;;;;;14.18;6.72;;;15.50;80.00;;;;;;5078168;28;20025;-81
2021/07/30 00:07:02;;;;;;;12.07;6.32;;;15.50;80.30;;;;;;5074883;28;20115;-81
2021/07/30 00:09:28;;;;;;;12.07;6.57;;;15.50;80.70;;;;;;5075575;28;20028;-83
2021/07/30 00:11:53;;;;;;;10.85;6.32;;;15.40;80.80;;;;;;5074637;28;20033;-82
2021/07/30 00:14:19;;;;;;;13.85;6.13;;;15.40;80.80;;;;;;5089436;28;20027;-82
2021/07/30 00:16:44;;;;;;;12.77;6.53;;;15.30;80.80;;;;;;5085200;28;20460;-82
2021/07/30 00:19:10;;;;;;;12.20;6.82;;;15.30;80.90;;;;;;5074686;28;20023;-82
2021/07/30 00:21:36;;;;;;;12.15;6.78;;;15.30;80.90;;;;;;5073877;28;20095;-82
2021/07/30 00:24:02;;;;;;;12.55;6.78;;;15.20;80.90;;;;;;5072450;28;20074;-82
2021/07/30 00:26:28;;;;;;;15.13;7.88;;;15.20;81.00;;;;;;5072695;28;20063;-82
2021/07/30 00:28:53;;;;;;;15.05;7.13;;;15.20;81.10;;;;;;5077948;28;20024;-83
2021/07/30 00:31:19;;;;;;;13.27;7.20;;;15.20;81.30;;;;;;5075831;28;20067;-82
2021/07/30 00:33:44;;;;;;;16.70;7.50;;;15.10;81.40;;;;;;5073732;28;20068;-82
2021/07/30 00:36:10;;;;;;;15.45;7.50;;;15.10;81.60;;;;;;5073642;28;20074;-82
2021/07/30 00:38:36;;;;;;;11.93;6.80;;;15.10;81.70;;;;;;5074009;28;20457;-82
2021/07/30 00:41:01;;;;;;;13.95;6.72;;;15.10;81.70;;;;;;5072234;28;20032;-83
2021/07/30 00:43:27;;;;;;;12.02;7.75;;;15.00;81.90;;;;;;5072874;28;20055;-82
2021/07/30 00:45:55;;;;;;;12.75;7.25;;;15.10;82.20;;;;;;5072509;28;20024;-82
2021/07/30 00:48:24;;;;;;;13.07;7.65;;;15.00;82.10;;;;;;5075840;28;20047;-82
2021/07/30 00:50:51;;;;;;;14.38;7.70;;;15.00;82.10;;;;;;5087739;28;20024;-82
2021/07/30 00:53:18;;;;;;;10.57;6.53;;;14.90;82.10;;;;;;5094677;28;20024;-83
2021/07/30 00:55:44;;;;;;;13.75;8.65;;;14.90;82.30;;;;;;5088619;28;20021;-82
2021/07/30 00:58:11;;;;;;;20.20;8.18;;;14.90;82.30;;;;;;5073348;28;20484;-82
2021/07/30 01:00:38;;;;;;;13.07;7.75;;;14.90;82.30;;;;;;5071960;28;20032;-83
2021/07/30 01:03:04;;;;;;;15.07;8.30;;;14.90;82.20;;;;;;5072615;28;20472;-83
2021/07/30 01:05:31;;;;;;;11.40;7.93;;;14.80;82.30;;;;;;5073579;28;20085;-83
2021/07/30 01:08:02;;;;;;;15.65;8.45;;;14.80;82.40;;;;;;5073123;28;20031;-82
2021/07/30 01:10:28;;;;;;;12.02;7.45;;;14.80;82.60;;;;;;5075002;28;20029;-82
2021/07/30 01:12:55;;;;;;;17.75;7.90;;;14.70;82.40;;;;;;5074163;28;20017;-82
2021/07/30 01:15:21;;;;;;;13.98;8.35;;;14.70;82.50;;;;;;5072125;28;20020;-82
2021/07/30 01:17:47;;;;;;;15.60;8.88;;;14.70;83.30;;;;;;5073125;28;20510;-82
2021/07/30 01:20:14;;;;;;;15.05;8.45;;;14.70;82.80;;;;;;5073027;28;20091;-82
2021/07/30 01:22:52;;;;;;;14.23;8.48;;;14.70;82.80;;;;;;5072881;28;20469;-83
2021/07/30 01:25:19;;;;;;;14.38;8.07;;;14.70;82.80;;;;;;5073930;28;20099;-83
2021/07/30 01:27:49;;;;;;;15.55;8.60;;;14.70;82.80;;;;;;5073186;28;20059;-82
2021/07/30 01:30:16;;;;;;;14.80;8.57;;;14.70;82.80;;;;;;5071695;28;20036;-83
2021/07/30 01:32:42;;;;;;;14.38;8.38;;;14.70;83.00;;;;;;5071838;28;20032;-82
2021/07/30 01:35:08;;;;;;;13.38;8.52;;;14.60;82.80;;;;;;5071326;28;20123;-82
2021/07/30 01:37:33;;;;;;;14.95;8.48;;;14.60;82.80;;;;;;5073438;28;20522;-82
2021/07/30 01:39:59;;;;;;;12.48;7.57;;;14.60;82.70;;;;;;5072721;28;20529;-82
2021/07/30 01:42:25;;;;;;;13.68;8.90;;;14.60;82.70;;;;;;5071999;28;20021;-82
2021/07/30 01:44:51;;;;;;;14.77;7.90;;;14.60;82.90;;;;;;5072671;28;20112;-81
2021/07/30 01:47:19;;;;;;;13.10;8.98;;;14.60;82.80;;;;;;5072690;28;20032;-82
2021/07/30 01:49:46;;;;;;;13.18;8.13;;;14.50;83.00;;;;;;5074017;28;20021;-82
2021/07/30 01:52:11;;;;;;;13.35;8.57;;;14.50;83.20;;;;;;5072075;28;20461;-83
2021/07/30 01:54:38;;;;;;;13.27;7.85;;;14.50;83.30;;;;;;5071750;28;20047;-83
2021/07/30 01:57:04;;;;;;;16.95;7.47;;;14.50;83.40;;;;;;5071687;28;20055;-83
2021/07/30 01:59:30;;;;;;;11.45;7.72;;;14.50;83.30;;;;;;5071436;28;20043;-83
2021/07/30 02:01:55;;;;;;;13.45;7.97;;;14.50;83.40;;;;;;5075075;28;20024;-83
2021/07/30 02:04:21;;;;;;;12.63;8.40;;;14.50;83.50;;;;;;5074112;28;20477;-83
2021/07/30 02:06:46;;;;;;;14.73;8.38;;;14.50;83.20;;;;;;5078302;28;20077;-83
2021/07/30 02:09:12;;;;;;;16.45;9.02;;;14.50;83.10;;;;;;5089260;28;20024;-83
2021/07/30 02:11:41;;;;;;;14.93;8.65;;;14.50;83.10;;;;;;5089412;28;20020;-82
2021/07/30 02:14:15;;;;;;;14.95;8.45;;;14.50;83.00;;;;;;5079503;28;20449;-83
2021/07/30 02:16:53;;;;;;;15.85;8.48;;;14.50;83.00;;;;;;5075490;28;20035;-82
2021/07/30 02:19:19;;;;;;;16.02;8.38;;;14.50;82.80;;;;;;5090993;28;20059;-81
2021/07/30 02:21:46;;;;;;;16.98;8.88;;;14.40;82.80;;;;;;5080928;28;20025;-81
2021/07/30 02:24:12;;;;;;;13.63;8.35;;;14.40;83.00;;;;;;5073270;28;20126;-81
2021/07/30 02:26:37;;;;;;;13.20;7.22;;;14.50;83.00;;;;;;5076861;28;20500;-81
2021/07/30 02:29:04;;;;;;;15.40;8.68;;;14.40;83.00;;;;;;5076914;28;20089;-81
2021/07/30 02:31:30;;;;;;;15.40;8.95;;;14.40;83.00;;;;;;5076194;28;20020;-81
2021/07/30 02:33:56;;;;;;;15.93;8.45;;;14.40;82.80;;;;;;5075543;28;20052;-81
2021/07/30 02:36:22;;;;;;;15.90;9.35;;;14.30;82.70;;;;;;5076026;28;20120;-80
2021/07/30 02:38:47;;;;;;;11.38;7.55;;;14.30;82.80;;;;;;5076167;28;20116;-81
2021/07/30 02:41:13;;;;;;;17.00;8.95;;;14.30;82.80;;;;;;5076655;28;20016;-80
2021/07/30 02:43:39;;;;;;;17.58;8.68;;;14.30;83.00;;;;;;5086196;28;20076;-80
2021/07/30 02:46:05;;;;;;;13.27;7.88;;;14.40;83.10;;;;;;5082477;28;20025;-81
2021/07/30 02:48:31;;;;;;;15.15;8.57;;;14.30;83.20;;;;;;5076275;28;20487;-82
2021/07/30 02:50:56;;;;;;;18.38;9.55;;;14.30;83.20;;;;;;5074015;28;20025;-81
2021/07/30 02:53:22;;;;;;;14.77;8.52;;;14.20;83.30;;;;;;5076428;28;20024;-81
2021/07/30 02:55:48;;;;;;;17.65;9.00;;;14.20;83.40;;;;;;5075405;28;20025;-82
2021/07/30 02:58:14;;;;;;;18.13;9.55;;;14.20;83.60;;;;;;5073884;28;20031;-80
2021/07/30 03:00:39;;;;;;;14.90;9.45;;;14.20;83.50;;;;;;5074645;28;20218;-80
2021/07/30 03:03:05;;;;;;;13.27;7.80;;;14.20;83.60;;;;;;5074141;28;20028;-80
2021/07/30 03:05:31;;;;;;;14.23;8.52;;;14.20;83.80;;;;;;5074245;28;20034;-80
2021/07/30 03:07:57;;;;;;;14.85;8.48;;;14.20;83.90;;;;;;5075777;28;20094;-81
2021/07/30 03:10:22;;;;;;;14.70;8.23;;;14.20;83.80;;;;;;5073998;28;20039;-81
2021/07/30 03:12:48;;;;;;;12.68;8.77;;;14.10;83.80;;;;;;5073958;28;20028;-80
2021/07/30 03:15:13;;;;;;;13.95;8.05;;;14.20;84.00;;;;;;5073778;28;20031;-80
2021/07/30 03:17:39;;;;;;;19.55;8.52;;;14.10;83.90;;;;;;5075596;28;20457;-80
2021/07/30 03:20:05;;;;;;;12.45;8.60;;;14.10;84.00;;;;;;5076210;28;20020;-80
2021/07/30 03:22:35;;;;;;;15.25;7.90;;;14.10;84.20;;;;;;5076190;28;20024;-80
2021/07/30 03:25:01;;;;;;;13.15;8.35;;;14.10;84.20;;;;;;5074065;28;20031;-80
2021/07/30 03:27:27;;;;;;;12.60;8.60;;;14.10;84.30;;;;;;5073767;28;20567;-81
2021/07/30 03:29:53;;;;;;;16.77;8.15;;;14.10;84.30;;;;;;5074802;28;20052;-81
2021/07/30 03:32:19;;;;;;;14.10;7.60;;;14.10;84.20;;;;;;5073879;28;20028;-81
2021/07/30 03:34:48;;;;;;;16.55;7.75;;;14.10;84.40;;;;;;5073841;28;20427;-81
2021/07/30 03:37:14;;;;;;;14.55;7.15;;;14.10;84.20;;;;;;5073813;28;20028;-81
2021/07/30 03:39:40;;;;;;;12.70;8.20;;;14.20;84.40;;;;;;5073804;28;20538;-81
2021/07/30 03:42:07;;;;;;;14.98;9.05;;;14.20;84.20;;;;;;5074915;28;20024;-81
2021/07/30 03:44:33;;;;;;;15.65;8.48;;;14.20;83.90;;;;;;5075832;28;20052;-80
2021/07/30 03:46:58;;;;;;;14.25;8.88;;;14.20;83.80;;;;;;5078512;28;20012;-81
2021/07/30 03:49:24;;;;;;;13.45;8.25;;;14.20;83.40;;;;;;5075748;28;20025;-81
2021/07/30 03:51:50;;;;;;;12.25;7.63;;;14.30;83.50;;;;;;5074605;28;20472;-80
2021/07/30 03:54:17;;;;;;;10.70;7.35;;;14.20;83.40;;;;;;5073194;28;20518;-81
2021/07/30 03:56:43;;;;;;;11.48;7.40;;;14.30;83.70;;;;;;5076514;28;20017;-80
2021/07/30 03:59:09;;;;;;;11.15;7.40;;;14.30;83.50;;;;;;5088831;28;20059;-79
2021/07/30 04:01:35;;;;;;;12.25;8.15;;;14.40;83.70;;;;;;5092606;28;20040;-80
2021/07/30 04:04:01;;;;;;;13.57;7.95;;;14.40;83.30;;;;;;5084622;28;20029;-80
2021/07/30 04:06:27;;;;;;;15.00;8.82;;;14.40;83.20;;;;;;5075001;28;20052;-81
2021/07/30 04:08:53;;;;;;;18.65;7.28;;;14.40;82.80;;;;;;5074304;28;20024;-81
2021/07/30 04:11:19;;;;;;;16.27;7.90;;;14.40;82.70;;;;;;5072338;28;20066;-81
2021/07/30 04:13:46;;;;;;;19.10;7.43;;;14.50;82.90;;;;;;5073200;28;20029;-80
2021/07/30 04:16:12;;;;;;;13.80;8.27;;;14.50;82.70;;;;;;5074570;28;20040;-80
2021/07/30 04:18:38;;;;;;;13.00;8.60;;;14.50;82.40;;;;;;5074647;28;20043;-80
2021/07/30 04:21:05;;;;;;;15.32;7.85;;;14.60;82.00;;;;;;5075679;28;20027;-80
2021/07/30 04:23:31;;;;;;;12.45;7.38;;;14.60;81.90;;;;;;5084587;28;20033;-80
2021/07/30 04:25:56;;;;;;;12.70;7.05;;;14.60;82.10;;;;;;5088897;28;20029;-80
2021/07/30 04:28:22;;;;;;;16.42;8.27;;;14.60;81.90;;;;;;5074160;28;20029;-80
2021/07/30 04:30:47;;;;;;;19.65;8.30;;;14.60;81.60;;;;;;5073179;28;20462;-80
2021/07/30 04:33:13;;;;;;;13.45;7.07;;;14.70;81.50;;;;;;5072085;28;20021;-80
2021/07/30 04:35:39;;;;;;;12.65;7.53;;;14.80;81.20;;;;;;5073655;28;20457;-79
2021/07/30 04:38:04;;;;;;;14.68;6.72;;;14.70;80.90;;;;;;5071968;28;20423;-80
2021/07/30 04:40:30;;;;;;;13.98;7.70;;;14.70;81.00;;;;;;5073389;28;20078;-80
2021/07/30 04:42:57;;;;;;;12.38;6.90;;;14.70;80.90;;;;;;5072223;28;20048;-79
2021/07/30 04:45:22;;;;;;;13.80;7.63;;;14.80;81.20;;;;;;5071844;28;20040;-80
2021/07/30 04:47:48;;;;;;;13.60;7.82;;;14.80;81.10;;;;;;5072866;28;20392;-80
2021/07/30 04:50:14;;;;;;;11.38;6.97;;;14.90;81.00;;;;;;5071689;28;20113;-79
2021/07/30 04:52:39;;;;;;;11.85;6.72;;;14.90;81.00;;;;;;5072090;28;20032;-79
2021/07/30 04:55:05;;;;;;;14.07;6.75;;;14.90;81.00;;;;;;5072801;28;20088;-80
2021/07/30 04:57:32;;;;;;;15.95;7.10;;;15.00;81.10;;;;;;5073274;28;20028;-79
2021/07/30 04:59:57;;;;;;;15.48;7.35;;;15.00;80.80;;;;;;5071420;28;20035;-80
2021/07/30 05:02:23;;;;;;;11.25;6.95;;;15.00;80.60;;;;;;5071296;28;20115;-80
2021/07/30 05:04:49;;;;;;;14.73;7.13;;;15.20;81.40;;;;;;5073220;28;20475;-80
2021/07/30 05:07:14;;;;;;;14.23;7.32;;;15.20;80.60;;;;;;5071566;28;20044;-80
2021/07/30 05:09:40;;;;;;;14.57;8.00;;;15.20;80.20;;;;;;5071605;28;20483;-80
2021/07/30 05:12:06;;;;;;;11.27;7.30;;;15.20;80.00;;;;;;5073043;28;20070;-79
2021/07/30 05:14:31;;;;;;;14.35;6.97;;;15.30;80.30;;;;;;5071749;28;20046;-80
2021/07/30 05:16:57;;;;;;;13.25;7.75;;;15.40;80.20;;;;;;5073391;28;20056;-80
2021/07/30 05:19:22;;;;;;;19.42;7.97;;;15.40;80.10;;;;;;5071595;28;20475;-79
2021/07/30 05:21:48;;;;;;;15.38;7.85;;;15.40;79.70;;;;;;5072115;28;20024;-80
2021/07/30 05:24:13;;;;;;;14.18;7.88;;;15.40;79.40;;;;;;5074830;28;20037;-80
2021/07/30 05:26:39;;;;;;;12.40;7.50;;;15.40;79.60;;;;;;5082725;28;20095;-79
2021/07/30 05:29:08;;;;;;;12.30;7.38;;;15.50;79.60;;;;;;5075945;28;20004;-79
2021/07/30 05:31:35;;;;;;;15.20;7.45;;;15.50;79.50;;;;;;5074629;28;20025;-79
2021/07/30 05:34:00;;;;;;;12.07;7.00;;;15.50;79.40;;;;;;5071414;28;20128;-80
2021/07/30 05:36:26;;;;;;;11.82;7.20;;;15.50;79.00;;;;;;5071473;28;20107;-80
2021/07/30 05:38:52;;;;;;;16.55;8.30;;;15.60;79.30;;;;;;5071690;28;20020;-81
2021/07/30 05:41:17;;;;;;;16.20;8.32;;;15.70;79.20;;;;;;5072069;28;20070;-80
2021/07/30 05:43:44;;;;;;;19.42;7.93;;;15.80;79.00;;;;;;5073077;28;20067;-79
2021/07/30 05:46:13;;;;;;;15.10;8.23;;;15.90;78.80;;;;;;5075283;28;20033;-79
2021/07/30 05:48:38;;;;;;;15.80;7.90;;;16.00;78.60;;;;;;5085815;28;20016;-79
2021/07/30 05:51:04;;;;;;;17.65;8.80;;;16.10;78.40;;;;;;5093049;28;20040;-81
2021/07/30 05:53:30;;;;;;;13.27;7.95;;;16.20;77.90;;;;;;5084211;28;20021;-80
2021/07/30 05:55:55;;;;;;;13.63;7.38;;;16.20;77.70;;;;;;5073650;28;20263;-80
2021/07/30 05:58:21;;;;;;;13.80;7.30;;;16.30;77.40;;;;;;5071256;28;20017;-80
2021/07/30 06:00:46;;;;;;;13.43;7.68;;;16.30;77.30;;;;;;5073416;28;20118;-80
2021/07/30 06:03:12;;;;;;;19.00;9.13;;;16.40;77.40;;;;;;5076283;28;20035;-80
2021/07/30 06:05:38;;;;;;;16.60;7.30;;;16.40;77.30;;;;;;5075325;28;20029;-80
2021/07/30 06:08:06;;;;;;;12.43;7.05;;;16.60;77.10;;;;;;5075239;28;20024;-80
2021/07/30 06:10:32;;;;;;;15.30;7.68;;;16.70;76.80;;;;;;5075316;28;20021;-80
2021/07/30 06:12:59;;;;;;;12.02;7.70;;;16.90;76.40;;;;;;5076645;28;20046;-80
2021/07/30 06:15:25;;;;;;;18.88;8.60;;;17.00;75.70;;;;;;5074964;28;20449;-80
2021/07/30 06:17:51;;;;;;;12.93;7.80;;;17.10;75.10;;;;;;5075039;28;20032;-80
2021/07/30 06:20:17;;;;;;;12.60;7.00;;;17.20;75.10;;;;;;5074836;28;20110;-79
2021/07/30 06:22:43;;;;;;;17.00;7.88;;;17.30;75.20;;;;;;5075431;28;20128;-81
2021/07/30 06:25:10;;;;;;;14.98;7.00;;;17.30;74.30;;;;;;5076113;28;20512;-80
2021/07/30 06:27:35;;;;;;;11.65;6.55;;;17.20;74.40;;;;;;5078834;28;20021;-81
2021/07/30 06:30:08;;;;;;;14.40;7.00;;;17.20;74.60;;;;;;5092882;28;20047;-80
2021/07/30 06:32:37;;;;;;;10.40;6.00;;;17.30;74.90;;;;;;5074851;28;20047;-80
2021/07/30 06:35:06;;;;;;;14.05;5.90;;;17.40;74.80;;;;;;5076382;28;20123;-79
2021/07/30 06:37:33;;;;;;;11.32;5.82;;;17.50;74.70;;;;;;5056139;28;20029;-80
2021/07/30 06:39:58;;;;;;;8.38;5.03;;;17.70;74.20;;;;;;5063817;28;20115;-79
2021/07/30 06:42:24;;;;;;;16.73;6.97;;;17.80;73.80;;;;;;5069062;28;20941;-79
2021/07/30 06:44:50;;;;;;;11.50;5.70;;;17.90;73.40;;;;;;5075147;28;20043;-79
2021/07/30 06:47:15;;;;;;;13.85;7.88;;;18.00;73.10;;;;;;5076617;28;20020;-79
2021/07/30 06:49:41;;;;;;;11.70;6.35;;;18.00;73.40;;;;;;5075009;28;20070;-80
2021/07/30 06:52:07;;;;;;;14.32;6.85;;;18.10;73.40;;;;;;5076464;28;20060;-79
2021/07/30 06:54:33;;;;;;;13.65;6.93;;;18.20;73.10;;;;;;5076080;28;20025;-79
2021/07/30 06:57:00;;;;;;;15.23;6.82;;;18.30;73.30;;;;;;5075169;28;20380;-80
2021/07/30 06:59:26;;;;;;;13.23;6.45;;;18.50;73.00;;;;;;5060691;28;20177;-80
2021/07/30 07:01:52;;;;;;;14.20;7.00;;;18.60;72.90;;;;;;5056731;28;20457;-80
2021/07/30 07:04:17;;;;;;;14.98;7.90;;;18.70;72.40;;;;;;5055330;28;20033;-81
2021/07/30 07:06:47;;;;;;;12.85;7.75;;;18.80;72.00;;;;;;5055507;28;20461;-81
2021/07/30 07:09:16;;;;;;;14.35;6.57;;;18.90;71.60;;;;;;5058010;28;20028;-81
2021/07/30 07:11:42;;;;;;;11.00;5.60;;;18.90;71.40;;;;;;5055066;28;20060;-81
2021/07/30 07:14:07;;;;;;;9.95;5.07;;;18.90;71.60;;;;;;5055815;28;20029;-80
2021/07/30 07:16:33;;;;;;;9.70;4.80;;;19.00;71.30;;;;;;5053994;28;20373;-80
2021/07/30 07:18:59;;;;;;;9.00;4.93;;;19.10;70.40;;;;;;5053373;28;20029;-81
2021/07/30 07:21:24;;;;;;;9.20;4.28;;;19.10;69.80;;;;;;5053219;28;20023;-81
2021/07/30 07:23:53;;;;;;;11.82;4.60;;;19.20;70.00;;;;;;5053690;28;20041;-80
2021/07/30 07:26:19;;;;;;;12.43;6.43;;;19.30;69.60;;;;;;5054293;28;20093;-81
2021/07/30 07:28:45;;;;;;;12.27;6.68;;;19.40;70.30;;;;;;5062374;28;20033;-84
2021/07/30 07:31:11;;;;;;;18.13;8.50;;;19.40;69.30;;;;;;5070336;28;20035;-78
2021/07/30 07:33:37;;;;;;;15.10;6.32;;;19.50;69.30;;;;;;5059251;28;20017;-81
2021/07/30 07:36:03;;;;;;;16.45;7.20;;;19.60;69.50;;;;;;5053868;28;20024;-80
2021/07/30 07:38:29;;;;;;;12.82;5.97;;;19.70;69.20;;;;;;5058096;28;20021;-81
2021/07/30 07:41:04;;;;;;;14.43;7.28;;;19.70;68.70;;;;;;5069180;28;20549;-82
2021/07/30 07:43:29;;;;;;;16.90;7.90;;;19.80;68.50;;;;;;5073280;28;20032;-76
2021/07/30 07:45:55;;;;;;;18.65;7.28;;;19.90;68.30;;;;;;5077892;28;20430;-80
2021/07/30 07:48:20;;;;;;;12.88;6.30;;;20.00;68.20;;;;;;5073717;28;20070;-80
2021/07/30 07:50:46;;;;;;;13.25;6.05;;;20.10;67.90;;;;;;5073598;28;20021;-78
2021/07/30 07:53:17;;;;;;;14.65;6.50;;;20.30;67.60;;;;;;5075729;28;20100;-82
2021/07/30 07:55:42;;;;;;;14.88;5.50;;;20.20;67.30;;;;;;5075568;28;20476;-83
2021/07/30 07:58:08;;;;;;;14.95;6.85;;;20.20;67.30;;;;;;5075794;28;20027;-82
2021/07/30 08:00:34;;;;;;;17.23;6.93;;;20.20;67.80;;;;;;5075141;28;20028;-80
2021/07/30 08:03:00;;;;;;;18.77;7.05;;;20.30;67.70;;;;;;5073769;28;20371;-81
2021/07/30 08:05:26;;;;;;;11.43;5.70;;;20.40;67.00;;;;;;5073240;28;20035;-79
2021/07/30 08:07:51;;;;;;;10.40;4.30;;;20.50;66.40;;;;;;5076072;28;20024;-79
2021/07/30 08:10:17;;;;;;;12.93;6.95;;;20.60;66.10;;;;;;5078459;28;20067;-81
2021/07/30 08:12:43;;;;;;;12.52;6.65;;;20.90;66.10;;;;;;5074955;28;20460;-81
2021/07/30 08:15:08;;;;;;;15.77;6.95;;;21.20;64.80;;;;;;5073917;28;20056;-81
2021/07/30 08:17:38;;;;;;;13.70;5.47;;;21.40;63.60;;;;;;5073143;28;20086;-80
2021/07/30 08:20:06;;;;;;;12.45;5.60;;;21.40;62.70;;;;;;5073093;28;20016;-81
2021/07/30 08:22:32;;;;;;;12.48;5.55;;;21.40;62.90;;;;;;5073896;28;20469;-80
2021/07/30 08:24:57;;;;;;;14.68;5.28;;;21.50;63.30;;;;;;5075433;28;20116;-81
2021/07/30 08:27:23;;;;;;;12.00;5.00;;;21.50;63.10;;;;;;5075733;28;20024;-81
2021/07/30 08:29:49;;;;;;;17.02;5.38;;;21.70;62.80;;;;;;5075452;28;20020;-81
2021/07/30 08:32:15;;;;;;;14.23;5.07;;;21.80;62.40;;;;;;5082642;28;20025;-80
2021/07/30 08:34:41;;;;;;;6.75;3.17;;;21.80;62.70;;;;;;5089272;28;20056;-80
2021/07/30 08:37:07;;;;;;;12.07;4.32;;;21.90;62.70;;;;;;5075125;28;20074;-82
2021/07/30 08:39:33;;;;;;;7.03;3.25;;;21.90;61.80;;;;;;5072840;28;20425;-80
2021/07/30 08:42:01;;;;;;;12.57;4.47;;;22.00;62.00;;;;;;5072917;28;20024;-80
2021/07/30 08:44:27;;;;;;;12.32;4.03;;;21.90;61.20;;;;;;5073865;28;20491;-81
2021/07/30 08:46:53;;;;;;;10.73;4.18;;;21.90;60.90;;;;;;5081403;28;20082;-81
2021/07/30 08:49:19;;;;;;;10.63;4.70;;;21.90;62.30;;;;;;5072759;28;20028;-81
2021/07/30 08:51:49;;;;;;;9.50;3.22;;;21.90;60.30;;;;;;5072245;28;20020;-81
2021/07/30 08:54:16;;;;;;;10.65;4.00;;;21.90;60.90;;;;;;5073503;28;20056;-82
2021/07/30 08:56:42;;;;;;;10.20;2.90;;;21.90;60.50;;;;;;5072331;28;20052;-81
2021/07/30 08:59:08;;;;;;;9.07;3.60;;;22.00;62.00;;;;;;5072735;28;20083;-81
2021/07/30 09:01:34;;;;;;;11.00;3.65;;;22.10;61.00;;;;;;5072938;28;20108;-81
2021/07/30 09:04:00;;;;;;;8.50;3.67;;;22.10;60.50;;;;;;5072110;28;20033;-82
2021/07/30 09:06:26;;;;;;;14.63;4.60;;;22.20;61.30;;;;;;5071852;28;20441;-81
2021/07/30 09:09:01;;;;;;;10.32;2.90;;;22.30;60.60;;;;;;5072370;28;20043;-81
2021/07/30 09:11:31;;;;;;;10.65;3.63;;;22.50;61.60;;;;;;5073967;28;20021;-79
2021/07/30 09:13:58;;;;;;;10.43;3.90;;;22.60;59.40;;;;;;5074823;28;20036;-82
2021/07/30 09:16:24;;;;;;;8.10;2.97;;;22.60;59.00;;;;;;5071973;28;20027;-82
2021/07/30 09:18:51;;;;;;;9.88;3.50;;;22.80;60.10;;;;;;5072559;28;20242;-82
2021/07/30 09:21:33;;;;;;;9.18;3.65;;;23.10;60.10;;;;;;5071465;28;20092;-82
2021/07/30 09:24:00;;;;;;;7.57;3.30;;;23.30;59.60;;;;;;5072698;28;20037;-82
2021/07/30 09:26:39;;;;;;;8.80;4.18;;;23.30;58.20;;;;;;5073315;28;20484;-83
2021/07/30 09:29:06;;;;;;;7.28;3.33;;;23.30;58.30;;;;;;5078231;28;20074;-82
2021/07/30 09:32:13;;;;;;;5.82;2.97;;;23.40;58.10;;;;;;5136461;27;20308;-75
2021/07/30 09:34:41;;;;;;;12.02;3.33;;;23.60;59.50;;;;;;5133659;28;20038;-75
2021/07/30 09:37:09;;;;;;;7.50;3.47;;;23.70;57.80;;;;;;5147319;27;20015;-76
2021/07/30 09:39:38;;;;;;;7.00;2.85;;;23.80;56.30;;;;;;5146380;27;20073;-75
2021/07/30 09:42:09;;;;;;;6.28;3.30;;;24.00;57.70;;;;;;5130607;28;20028;-76
2021/07/30 09:44:42;;;;;;;7.75;3.10;;;24.10;57.70;;;;;;5146383;27;20062;-76
2021/07/30 09:47:10;;;;;;;7.43;3.22;;;24.20;57.00;;;;;;5130801;27;20027;-76
2021/07/30 09:49:44;;;;;;;5.80;2.70;;;24.30;57.20;;;;;;5129016;27;20023;-76
2021/07/30 09:52:11;;;;;;;6.70;3.00;;;24.30;58.20;;;;;;5128767;28;20028;-76
2021/07/30 09:54:42;;;;;;;8.27;3.38;;;24.30;56.40;;;;;;5128597;28;20019;-75
2021/07/30 09:57:09;;;;;;;6.78;2.80;;;24.40;57.40;;;;;;5129966;27;20046;-78
2021/07/30 09:59:41;;;;;;;10.80;4.40;;;24.30;58.60;;;;;;5129434;28;20124;-77
2021/07/30 10:02:12;;;;;;;9.35;2.70;;;24.20;54.70;;;;;;5130475;27;20481;-75
2021/07/30 10:04:42;;;;;;;11.65;5.10;;;24.20;58.30;;;;;;5128149;28;20023;-76
2021/07/30 10:07:11;;;;;;;7.30;3.50;;;24.30;55.30;;;;;;5129645;28;20445;-77
2021/07/30 10:09:37;;;;;;;6.50;3.67;;;24.20;57.40;;;;;;5128730;28;20026;-76
2021/07/30 10:12:04;;;;;;;10.60;3.28;;;24.30;55.50;;;;;;5128753;28;20031;-78
2021/07/30 10:14:30;;;;;;;4.65;2.15;;;24.40;58.20;;;;;;5128591;28;20043;-76
2021/07/30 10:17:03;;;;;;;9.20;3.42;;;24.40;54.90;;;;;;5129072;28;20460;-77
2021/07/30 10:19:32;;;;;;;7.38;3.47;;;24.50;56.60;;;;;;5129024;28;20020;-77
2021/07/30 10:22:01;;;;;;;8.30;4.40;;;24.70;54.90;;;;;;5129983;27;20032;-77
2021/07/30 10:24:29;;;;;;;9.35;3.60;;;24.80;54.50;;;;;;5129411;27;20344;-78
2021/07/30 10:27:04;;;;;;;7.00;2.60;;;24.90;58.10;;;;;;5128776;28;20039;-76
2021/07/30 10:30:04;;;;;;;5.93;3.47;;;25.00;55.30;;;;;;5128893;28;20054;-75
2021/07/30 10:32:50;;;;;;;8.02;3.15;;;25.00;55.20;;;;;;5128486;27;20479;-78
2021/07/30 10:35:41;;;;;;;8.77;4.38;;;24.80;55.40;;;;;;5131612;28;20138;-76
2021/07/30 10:38:14;;;;;;;9.50;4.13;;;24.50;55.30;;;;;;5146303;28;20074;-78
2021/07/30 10:40:42;;;;;;;5.13;2.08;;;24.50;54.30;;;;;;5128921;28;20038;-78
2021/07/30 10:43:12;;;;;;;5.13;2.78;;;24.50;58.00;;;;;;5117334;28;20024;-78
2021/07/30 10:45:43;;;;;;;9.15;3.72;;;24.70;57.00;;;;;;5115497;28;20015;-76
2021/07/30 10:48:11;;;;;;;5.90;2.60;;;24.80;56.10;;;;;;5116833;28;20095;-75
2021/07/30 10:50:56;;;;;;;7.22;3.50;;;24.70;58.60;;;;;;5120619;28;20054;-76
2021/07/30 10:53:34;;;;;;;7.05;2.58;;;24.70;56.70;;;;;;5117636;28;20118;-77
2021/07/30 10:56:07;;;;;;;7.18;3.38;;;24.60;58.90;;;;;;5115951;28;20020;-77
2021/07/30 10:58:45;;;;;;;8.48;3.95;;;24.70;58.80;;;;;;5114101;28;20027;-77
2021/07/30 11:01:19;;;;;;;7.70;3.25;;;24.80;55.60;;;;;;5114236;28;20356;-77
2021/07/30 11:06:24;;;;;;;7.45;3.55;;;25.10;57.10;;;;;;5115508;28;20041;-77
2021/07/30 11:08:59;;;;;;;6.65;2.70;;;25.20;57.40;;;;;;5114011;28;20023;-77
2021/07/30 11:11:46;;;;;;;5.10;2.10;;;25.30;55.80;;;;;;5115028;28;20035;-78
2021/07/30 11:14:15;;;;;;;7.28;2.85;;;25.30;58.00;;;;;;5114185;28;20030;-77
2021/07/30 11:16:46;;;;;;;4.75;2.20;;;25.20;56.40;;;;;;5114220;28;20114;-77
2021/07/30 11:19:13;;;;;;;5.43;2.80;;;25.20;56.80;;;;;;5120183;28;20334;-77
2021/07/30 11:21:39;;;;;;;9.77;3.70;;;25.30;57.00;;;;;;5124391;28;20046;-77
2021/07/30 11:24:07;;;;;;;6.40;3.22;;;25.30;53.90;;;;;;5123381;28;20081;-77
2021/07/30 11:26:34;;;;;;;7.20;2.92;;;25.30;54.80;;;;;;5116055;28;20024;-77
2021/07/30 11:29:02;;;;;;;6.65;3.13;;;25.20;57.80;;;;;;5113764;28;20024;-77
2021/07/30 11:31:28;;;;;;;7.93;3.15;;;25.20;56.50;;;;;;5113147;28;20039;-78
2021/07/30 11:33:54;;;;;;;7.70;3.20;;;25.40;54.40;;;;;;5115267;28;20027;-77
2021/07/30 11:36:20;;;;;;;8.35;3.50;;;25.80;51.90;;;;;;5113374;28;20115;-77
2021/07/30 11:38:59;;;;;;;6.15;2.95;;;25.80;51.30;;;;;;5114043;28;20050;-78
2021/07/30 11:41:25;;;;;;;5.03;2.35;;;26.10;56.00;;;;;;5113269;28;20024;-77
2021/07/30 11:44:07;;;;;;;7.07;3.50;;;26.30;56.20;;;;;;5113359;28;20027;-78
2021/07/30 11:46:33;;;;;;;8.15;2.78;;;26.50;57.50;;;;;;5113405;28;20016;-77
2021/07/30 11:49:02;;;;;;;6.57;2.45;;;26.70;55.30;;;;;;5113711;28;20111;-77
2021/07/30 11:51:28;;;;;;;4.97;2.78;;;26.80;55.90;;;;;;5113533;28;20028;-78
2021/07/30 11:53:56;;;;;;;4.85;2.38;;;26.80;51.30;;;;;;5113496;28;20023;-77
2021/07/30 11:56:23;;;;;;;7.10;2.95;;;26.70;54.80;;;;;;5113299;28;20015;-78
2021/07/30 11:59:03;;;;;;;7.03;2.50;;;26.40;52.60;;;;;;5113217;28;20467;-76
2021/07/30 12:01:32;;;;;;;6.50;2.80;;;26.10;55.90;;;;;;5112926;28;20031;-77
2021/07/30 12:04:12;;;;;;;6.95;2.67;;;25.90;52.40;;;;;;5113211;28;20039;-76
2021/07/30 12:06:41;;;;;;;;;;;25.90;52.50;;;;;;5112992;28;20107;-76
2021/07/30 12:09:09;;;;;;;5.70;2.70;;;25.80;54.70;;;;;;5113133;28;20306;-76
2021/07/30 12:11:36;;;;;;;7.35;3.15;;;25.60;54.60;;;;;;5114058;28;20038;-76
2021/07/30 12:14:03;;;;;;;5.05;2.88;;;25.50;56.90;;;;;;5112501;28;20349;-77
2021/07/30 12:16:29;;;;;;;5.28;2.63;;;25.40;57.30;;;;;;5112117;28;20033;-77
2021/07/30 12:18:58;;;;;;;4.40;2.60;;;25.40;58.50;;;;;;5113188;28;20024;-76
2021/07/30 12:21:24;;;;;;;5.10;2.83;;;25.30;56.30;;;;;;5114641;28;20027;-77
2021/07/30 12:23:50;;;;;;;5.65;2.95;;;25.30;54.30;;;;;;5112997;28;20365;-76
2021/07/30 12:26:33;;;;;;;7.97;3.38;;;25.30;55.50;;;;;;5112878;28;20068;-77
2021/07/30 12:28:59;;;;;;;8.57;3.53;;;25.30;53.90;;;;;;5112886;28;20051;-76
2021/07/30 12:31:24;;;;;;;5.45;2.75;;;25.20;55.10;;;;;;5113364;28;20443;-77
2021/07/30 12:34:10;;;;;;;7.40;3.13;;;25.10;57.30;;;;;;5113948;28;20065;-77
2021/07/30 12:36:35;;;;;;;6.13;3.05;;;25.00;58.80;;;;;;5116502;28;20060;-75
2021/07/30 12:39:02;;;;;;;6.95;3.10;;;24.90;59.60;;;;;;5117512;28;20023;-78
2021/07/30 12:41:33;;;;;;;6.45;3.08;;;24.90;58.20;;;;;;5130252;28;20087;-76
2021/07/30 12:44:16;;;;;;;6.22;3.00;;;24.90;57.10;;;;;;5112942;28;20039;-76
2021/07/30 12:46:44;;;;;;;6.60;3.50;;;24.80;61.00;;;;;;5112426;28;20497;-77